sensor_id;sensor_type;location;lat;lon;timestamp;P1;durP1;ratioP1;P2;durP2;ratioP2
17658;SDS011;8948;51.534;8.262;2023-04-01T00:02:20;3.53;;;1.20;;
17658;SDS011;8948;51.534;8.262;2023-04-01T00:07:21;1.63;;;0.90;;
17658;SDS011;8948;51.534;8.262;2023-04-01T00:12:22;3.63;;;1.37;;
17658;SDS011;8948;51.534;8.262;2023-04-01T00:17:25;2.33;;;0.90;;
17658;SDS011;8948;51.534;8.262;2023-04-01T00:22:26;3.57;;;1.10;;
17658;SDS011;8948;51.534;8.262;2023-04-01T00:27:27;1.90;;;1.00;;
17658;SDS011;8948;51.534;8.262;2023-04-01T00:32:27;0.80;;;0.80;;
17658;SDS011;8948;51.534;8.262;2023-04-01T00:37:28;1.47;;;0.80;;
17658;SDS011;8948;51.534;8.262;2023-04-01T00:42:29;4.53;;;1.10;;
17658;SDS011;8948;51.534;8.262;2023-04-01T00:47:30;7.33;;;1.20;;
17658;SDS011;8948;51.534;8.262;2023-04-01T00:52:30;2.23;;;0.93;;
17658;SDS011;8948;51.534;8.262;2023-04-01T00:57:32;1.43;;;0.90;;
17658;SDS011;8948;51.534;8.262;2023-04-01T01:02:36;3.00;;;1.07;;
17658;SDS011;8948;51.534;8.262;2023-04-01T01:07:40;1.33;;;0.90;;
17658;SDS011;8948;51.534;8.262;2023-04-01T01:18:25;1.67;;;0.90;;
17658;SDS011;8948;51.534;8.262;2023-04-01T01:34:31;1.83;;;1.03;;
17658;SDS011;8948;51.534;8.262;2023-04-01T01:40:00;1.90;;;0.93;;
17658;SDS011;8948;51.534;8.262;2023-04-01T01:45:06;2.17;;;1.00;;
17658;SDS011;8948;51.534;8.262;2023-04-01T01:50:09;2.00;;;0.90;;
17658;SDS011;8948;51.534;8.262;2023-04-01T01:55:28;1.57;;;1.10;;
17658;SDS011;8948;51.534;8.262;2023-04-01T02:00:33;2.17;;;0.80;;
17658;SDS011;8948;51.534;8.262;2023-04-01T02:05:35;2.60;;;0.90;;
17658;SDS011;8948;51.534;8.262;2023-04-01T02:10:37;3.13;;;0.63;;
17658;SDS011;8948;51.534;8.262;2023-04-01T02:15:42;1.97;;;0.70;;
17658;SDS011;8948;51.534;8.262;2023-04-01T02:20:47;1.90;;;0.80;;
17658;SDS011;8948;51.534;8.262;2023-04-01T02:25:49;1.70;;;0.60;;
17658;SDS011;8948;51.534;8.262;2023-04-01T02:30:50;1.13;;;0.93;;
17658;SDS011;8948;51.534;8.262;2023-04-01T02:35:52;1.00;;;0.60;;
17658;SDS011;8948;51.534;8.262;2023-04-01T02:40:57;1.17;;;0.70;;
17658;SDS011;8948;51.534;8.262;2023-04-01T02:46:00;1.10;;;0.70;;
17658;SDS011;8948;51.534;8.262;2023-04-01T02:51:01;3.90;;;0.80;;
17658;SDS011;8948;51.534;8.262;2023-04-01T02:56:02;0.73;;;0.70;;
17658;SDS011;8948;51.534;8.262;2023-04-01T03:01:03;1.33;;;0.80;;
17658;SDS011;8948;51.534;8.262;2023-04-01T03:06:07;1.23;;;0.80;;
17658;SDS011;8948;51.534;8.262;2023-04-01T03:11:09;0.90;;;0.70;;
17658;SDS011;8948;51.534;8.262;2023-04-01T03:16:10;1.67;;;0.87;;
17658;SDS011;8948;51.534;8.262;2023-04-01T03:21:14;0.70;;;0.70;;
17658;SDS011;8948;51.534;8.262;2023-04-01T03:26:16;0.70;;;0.70;;
17658;SDS011;8948;51.534;8.262;2023-04-01T03:31:18;0.90;;;0.80;;
17658;SDS011;8948;51.534;8.262;2023-04-01T03:36:18;3.27;;;0.70;;
17658;SDS011;8948;51.534;8.262;2023-04-01T03:41:19;2.60;;;0.80;;
17658;SDS011;8948;51.534;8.262;2023-04-01T03:46:20;1.90;;;0.60;;
17658;SDS011;8948;51.534;8.262;2023-04-01T03:51:21;0.80;;;0.77;;
17658;SDS011;8948;51.534;8.262;2023-04-01T03:56:21;3.13;;;0.70;;
17658;SDS011;8948;51.534;8.262;2023-04-01T04:01:22;1.50;;;0.70;;
17658;SDS011;8948;51.534;8.262;2023-04-01T04:06:23;0.73;;;0.60;;
17658;SDS011;8948;51.534;8.262;2023-04-01T04:11:28;0.70;;;0.70;;
17658;SDS011;8948;51.534;8.262;2023-04-01T04:16:30;1.23;;;0.80;;
17658;SDS011;8948;51.534;8.262;2023-04-01T04:21:31;0.70;;;0.70;;
17658;SDS011;8948;51.534;8.262;2023-04-01T04:26:32;1.03;;;0.70;;
17658;SDS011;8948;51.534;8.262;2023-04-01T04:31:32;0.60;;;0.60;;
17658;SDS011;8948;51.534;8.262;2023-04-01T04:36:33;0.73;;;0.73;;
17658;SDS011;8948;51.534;8.262;2023-04-01T04:41:33;0.60;;;0.60;;
17658;SDS011;8948;51.534;8.262;2023-04-01T04:46:36;0.67;;;0.60;;
17658;SDS011;8948;51.534;8.262;2023-04-01T04:51:39;0.53;;;0.53;;
17658;SDS011;8948;51.534;8.262;2023-04-01T04:56:40;0.90;;;0.70;;
17658;SDS011;8948;51.534;8.262;2023-04-01T05:01:40;1.07;;;0.63;;
17658;SDS011;8948;51.534;8.262;2023-04-01T05:06:42;0.70;;;0.70;;
17658;SDS011;8948;51.534;8.262;2023-04-01T05:11:43;0.70;;;0.70;;
17658;SDS011;8948;51.534;8.262;2023-04-01T05:16:43;0.83;;;0.60;;
17658;SDS011;8948;51.534;8.262;2023-04-01T05:21:44;0.93;;;0.70;;
17658;SDS011;8948;51.534;8.262;2023-04-01T05:26:44;0.80;;;0.80;;
17658;SDS011;8948;51.534;8.262;2023-04-01T05:31:45;2.10;;;0.90;;
17658;SDS011;8948;51.534;8.262;2023-04-01T05:36:45;1.80;;;0.93;;
17658;SDS011;8948;51.534;8.262;2023-04-01T05:41:46;2.20;;;0.90;;
17658;SDS011;8948;51.534;8.262;2023-04-01T05:46:47;1.10;;;0.70;;
17658;SDS011;8948;51.534;8.262;2023-04-01T05:51:47;0.70;;;0.70;;
17658;SDS011;8948;51.534;8.262;2023-04-01T05:56:48;0.70;;;0.70;;
17658;SDS011;8948;51.534;8.262;2023-04-01T06:01:48;0.77;;;0.70;;
17658;SDS011;8948;51.534;8.262;2023-04-01T06:06:49;1.73;;;0.83;;
17658;SDS011;8948;51.534;8.262;2023-04-01T06:43:52;0.80;;;0.80;;
17658;SDS011;8948;51.534;8.262;2023-04-01T06:54:21;0.87;;;0.70;;
17658;SDS011;8948;51.534;8.262;2023-04-01T06:59:34;0.60;;;0.60;;
17658;SDS011;8948;51.534;8.262;2023-04-01T07:04:39;0.60;;;0.60;;
17658;SDS011;8948;51.534;8.262;2023-04-01T07:09:45;0.90;;;0.63;;
17658;SDS011;8948;51.534;8.262;2023-04-01T07:14:51;1.27;;;0.70;;
17658;SDS011;8948;51.534;8.262;2023-04-01T07:25:31;0.70;;;0.70;;
17658;SDS011;8948;51.534;8.262;2023-04-01T07:41:22;0.67;;;0.67;;
17658;SDS011;8948;51.534;8.262;2023-04-01T07:47:01;0.83;;;0.77;;
17658;SDS011;8948;51.534;8.262;2023-04-01T07:52:52;0.60;;;0.60;;
17658;SDS011;8948;51.534;8.262;2023-04-01T07:57:50;0.93;;;0.63;;
17658;SDS011;8948;51.534;8.262;2023-04-01T08:08:47;0.70;;;0.70;;
17658;SDS011;8948;51.534;8.262;2023-04-01T08:25:04;0.70;;;0.70;;
17658;SDS011;8948;51.534;8.262;2023-04-01T08:30:15;2.97;;;0.93;;
17658;SDS011;8948;51.534;8.262;2023-04-01T08:46:18;1.60;;;0.70;;
17658;SDS011;8948;51.534;8.262;2023-04-01T09:07:50;1.33;;;0.77;;
17658;SDS011;8948;51.534;8.262;2023-04-01T09:29:26;0.87;;;0.80;;
17658;SDS011;8948;51.534;8.262;2023-04-01T09:34:38;0.77;;;0.77;;
17658;SDS011;8948;51.534;8.262;2023-04-01T10:38:29;0.90;;;0.70;;
17658;SDS011;8948;51.534;8.262;2023-04-01T10:55:24;1.00;;;0.90;;
17658;SDS011;8948;51.534;8.262;2023-04-01T11:00:43;1.17;;;0.70;;
17658;SDS011;8948;51.534;8.262;2023-04-01T11:22:07;1.50;;;0.70;;
17658;SDS011;8948;51.534;8.262;2023-04-01T11:27:31;0.93;;;0.80;;
17658;SDS011;8948;51.534;8.262;2023-04-01T11:32:40;0.93;;;0.80;;
17658;SDS011;8948;51.534;8.262;2023-04-01T11:43:05;1.23;;;0.80;;
17658;SDS011;8948;51.534;8.262;2023-04-01T12:04:18;1.00;;;0.90;;
17658;SDS011;8948;51.534;8.262;2023-04-01T12:20:09;2.30;;;2.10;;
17658;SDS011;8948;51.534;8.262;2023-04-01T12:25:25;2.27;;;2.07;;
17658;SDS011;8948;51.534;8.262;2023-04-01T12:30:54;2.63;;;2.43;;
17658;SDS011;8948;51.534;8.262;2023-04-01T12:52:10;1.93;;;1.73;;
17658;SDS011;8948;51.534;8.262;2023-04-01T13:02:58;1.60;;;1.50;;
17658;SDS011;8948;51.534;8.262;2023-04-01T13:52:32;4.17;;;1.30;;
17658;SDS011;8948;51.534;8.262;2023-04-01T13:57:44;2.77;;;1.20;;
17658;SDS011;8948;51.534;8.262;2023-04-01T14:19:30;1.30;;;1.20;;
17658;SDS011;8948;51.534;8.262;2023-04-01T14:30:43;1.30;;;1.00;;
17658;SDS011;8948;51.534;8.262;2023-04-01T14:47:38;1.10;;;1.00;;
17658;SDS011;8948;51.534;8.262;2023-04-01T14:57:31;2.47;;;1.67;;
17658;SDS011;8948;51.534;8.262;2023-04-01T15:07:53;1.87;;;1.70;;
17658;SDS011;8948;51.534;8.262;2023-04-01T15:18:35;1.87;;;1.77;;
17658;SDS011;8948;51.534;8.262;2023-04-01T15:34:16;3.67;;;1.77;;
17658;SDS011;8948;51.534;8.262;2023-04-01T15:50:26;4.50;;;2.60;;
17658;SDS011;8948;51.534;8.262;2023-04-01T16:06:11;3.40;;;2.33;;
17658;SDS011;8948;51.534;8.262;2023-04-01T16:22:07;2.27;;;2.07;;
17658;SDS011;8948;51.534;8.262;2023-04-01T16:58:23;2.73;;;1.83;;
17658;SDS011;8948;51.534;8.262;2023-04-01T17:03:34;3.33;;;1.90;;
17658;SDS011;8948;51.534;8.262;2023-04-01T17:08:50;1.80;;;1.53;;
17658;SDS011;8948;51.534;8.262;2023-04-01T17:14:23;2.67;;;2.00;;
17658;SDS011;8948;51.534;8.262;2023-04-01T17:30:39;5.00;;;2.90;;
17658;SDS011;8948;51.534;8.262;2023-04-01T17:41:25;4.80;;;3.40;;
17658;SDS011;8948;51.534;8.262;2023-04-01T17:52:04;4.07;;;3.10;;
17658;SDS011;8948;51.534;8.262;2023-04-01T17:57:30;4.60;;;3.63;;
17658;SDS011;8948;51.534;8.262;2023-04-01T18:02:55;4.97;;;4.23;;
17658;SDS011;8948;51.534;8.262;2023-04-01T18:19:03;6.27;;;5.20;;
17658;SDS011;8948;51.534;8.262;2023-04-01T18:29:31;8.43;;;6.00;;
17658;SDS011;8948;51.534;8.262;2023-04-01T18:34:43;6.63;;;5.70;;
17658;SDS011;8948;51.534;8.262;2023-04-01T18:39:53;8.77;;;5.77;;
17658;SDS011;8948;51.534;8.262;2023-04-01T18:56:02;7.53;;;6.43;;
17658;SDS011;8948;51.534;8.262;2023-04-01T19:01:14;6.80;;;5.77;;
17658;SDS011;8948;51.534;8.262;2023-04-01T19:06:21;6.87;;;5.47;;
17658;SDS011;8948;51.534;8.262;2023-04-01T19:11:31;6.77;;;5.80;;
17658;SDS011;8948;51.534;8.262;2023-04-01T19:16:49;9.80;;;5.60;;
17658;SDS011;8948;51.534;8.262;2023-04-01T19:22:43;5.97;;;5.37;;
17658;SDS011;8948;51.534;8.262;2023-04-01T19:38:38;10.13;;;7.00;;
17658;SDS011;8948;51.534;8.262;2023-04-01T19:43:59;6.97;;;5.40;;
17658;SDS011;8948;51.534;8.262;2023-04-01T19:49:38;8.47;;;6.40;;
17658;SDS011;8948;51.534;8.262;2023-04-01T20:05:47;8.60;;;6.10;;
17658;SDS011;8948;51.534;8.262;2023-04-01T20:27:35;13.77;;;7.73;;
17658;SDS011;8948;51.534;8.262;2023-04-01T20:32:49;9.73;;;6.80;;
17658;SDS011;8948;51.534;8.262;2023-04-01T20:38:37;11.27;;;7.30;;
17658;SDS011;8948;51.534;8.262;2023-04-01T20:54:28;6.07;;;4.97;;
17658;SDS011;8948;51.534;8.262;2023-04-01T20:59:37;9.93;;;6.60;;
17658;SDS011;8948;51.534;8.262;2023-04-01T21:10:29;11.47;;;7.20;;
17658;SDS011;8948;51.534;8.262;2023-04-01T21:37:02;6.83;;;5.80;;
17658;SDS011;8948;51.534;8.262;2023-04-01T22:04:15;7.23;;;5.37;;
17658;SDS011;8948;51.534;8.262;2023-04-01T22:10:03;5.17;;;4.63;;
17658;SDS011;8948;51.534;8.262;2023-04-01T22:15:28;9.57;;;5.27;;
17658;SDS011;8948;51.534;8.262;2023-04-01T22:20:48;4.53;;;4.13;;
17658;SDS011;8948;51.534;8.262;2023-04-01T22:31:03;5.00;;;4.40;;
17658;SDS011;8948;51.534;8.262;2023-04-01T22:57:39;4.57;;;3.73;;
17658;SDS011;8948;51.534;8.262;2023-04-01T23:02:47;3.70;;;3.40;;
17658;SDS011;8948;51.534;8.262;2023-04-01T23:13:46;3.10;;;2.80;;
17658;SDS011;8948;51.534;8.262;2023-04-01T23:18:55;3.67;;;3.37;;
17658;SDS011;8948;51.534;8.262;2023-04-01T23:24:19;3.60;;;3.30;;
17658;SDS011;8948;51.534;8.262;2023-04-01T23:29:36;3.93;;;3.57;;
17658;SDS011;8948;51.534;8.262;2023-04-01T23:34:39;4.83;;;3.90;;
17658;SDS011;8948;51.534;8.262;2023-04-01T23:39:51;4.93;;;4.10;;
17658;SDS011;8948;51.534;8.262;2023-04-01T23:45:04;4.47;;;4.00;;
17658;SDS011;8948;51.534;8.262;2023-04-01T23:50:21;5.30;;;4.80;;
17658;SDS011;8948;51.534;8.262;2023-04-01T23:55:27;4.90;;;4.40;;
